Time;durP1;ratioP1;P1;durP2;ratioP2;P2;SDS_P1;SDS_P2;PMS_P1;PMS_P2;Temp;Humidity;BMP_temperature;BMP_pressure;BME280_temperature;BME280_humidity;BME280_pressure;Samples;Min_cycle;Max_cycle;Signal;HPM_P1;HPM_P2
2023/09/22 00:08:56;;;;;;;6.10;3.10;;;;;;;17.68;73.20;98418.84;435455;1255;140082;-61
2023/09/22 00:19:05;;;;;;;3.60;2.70;;;;;;;17.69;73.15;98415.80;435919;1256;140626;-61
2023/09/22 00:29:11;;;;;;;2.30;2.10;;;;;;;17.63;73.12;98411.66;436794;1254;140677;-61
2023/09/22 00:39:16;;;;;;;4.00;3.10;;;;;;;17.48;73.34;98403.50;435647;1251;141202;-61
2023/09/22 00:49:24;;;;;;;3.80;2.60;;;;;;;17.31;73.70;98403.79;435676;1254;139258;-62
2023/09/22 00:59:30;;;;;;;2.80;2.50;;;;;;;17.14;74.05;98394.82;436035;1256;140154;-62
2023/09/22 01:09:36;;;;;;;4.90;2.70;;;;;;;16.99;74.41;98390.77;435885;1256;140137;-61
2023/09/22 01:19:43;;;;;;;4.00;3.50;;;;;;;16.86;74.83;98389.38;435597;1256;139999;-60
2023/09/22 01:29:49;;;;;;;5.10;3.00;;;;;;;16.74;75.31;98381.13;435917;1255;140195;-61
2023/09/22 01:39:55;;;;;;;4.00;2.80;;;;;;;16.64;75.71;98372.12;435495;1255;139472;-63
2023/09/22 01:50:01;;;;;;;3.90;3.20;;;;;;;16.54;76.16;98369.09;436906;1255;140317;-61
2023/09/22 02:00:10;;;;;;;3.70;3.00;;;;;;;16.46;76.60;98367.89;435610;1251;141046;-62
2023/09/22 02:10:17;;;;;;;4.60;3.00;;;;;;;16.34;76.90;98368.10;436025;1256;141182;-61
2023/09/22 02:20:23;;;;;;;3.40;3.00;;;;;;;16.21;77.49;98359.19;435723;1256;139079;-61
2023/09/22 02:30:28;;;;;;;2.90;2.60;;;;;;;16.13;78.03;98348.27;435575;1254;140558;-60
2023/09/22 02:40:34;;;;;;;3.60;2.90;;;;;;;16.04;78.49;98341.11;435266;1256;139261;-60
2023/09/22 02:50:40;;;;;;;2.70;2.50;;;;;;;15.95;78.95;98341.83;435716;1256;139791;-61
2023/09/22 03:00:46;;;;;;;4.40;3.80;;;;;;;15.90;79.34;98332.48;436327;1256;139319;-61
2023/09/22 03:10:52;;;;;;;4.20;2.90;;;;;;;15.87;79.72;98318.39;435804;1256;139332;-60
2023/09/22 03:20:58;;;;;;;5.10;3.30;;;;;;;15.82;80.07;98321.27;435645;1255;138986;-62
2023/09/22 03:31:04;;;;;;;3.50;3.10;;;;;;;15.77;80.29;98326.05;435507;1256;140446;-63
2023/09/22 03:41:10;;;;;;;4.20;2.90;;;;;;;15.70;80.71;98324.36;435927;1251;139732;-61
2023/09/22 03:51:16;;;;;;;3.70;3.20;;;;;;;15.64;81.14;98328.52;436278;1257;139316;-62
2023/09/22 04:01:22;;;;;;;4.20;3.60;;;;;;;15.62;81.40;98333.15;436251;1257;141305;-62
2023/09/22 04:11:28;;;;;;;5.00;3.40;;;;;;;15.67;81.51;98332.03;436374;1264;140134;-61
2023/09/22 04:21:37;;;;;;;3.30;3.00;;;;;;;15.70;81.40;98330.20;435926;1251;140002;-61
2023/09/22 04:31:43;;;;;;;3.80;3.00;;;;;;;15.65;81.48;98337.16;436277;1256;139080;-62
2023/09/22 04:41:48;;;;;;;3.10;2.80;;;;;;;15.69;81.86;98324.92;436563;1256;139241;-61
2023/09/22 04:51:54;;;;;;;3.40;3.00;;;;;;;15.71;81.70;98321.29;435591;1257;139534;-61
2023/09/22 05:02:00;;;;;;;5.10;3.60;;;;;;;15.68;81.77;98330.52;436009;1255;138997;-60
2023/09/22 05:12:08;;;;;;;3.60;3.20;;;;;;;15.75;81.86;98338.80;436792;1257;139870;-62
2023/09/22 05:22:14;;;;;;;4.30;3.60;;;;;;;15.74;81.86;98330.79;436185;1251;141889;-61
2023/09/22 05:32:20;;;;;;;3.80;3.50;;;;;;;15.73;82.15;98331.42;435945;1256;140636;-60
2023/09/22 05:42:26;;;;;;;6.60;3.80;;;;;;;16.26;83.00;98332.77;435509;1256;139261;-60
2023/09/22 05:52:32;;;;;;;5.80;3.40;;;;;;;16.38;81.70;98327.52;435713;1256;142287;-60
2023/09/22 06:02:37;;;;;;;4.30;3.60;;;;;;;16.43;81.70;98332.14;435543;1251;141184;-61
2023/09/22 06:12:44;;;;;;;6.20;3.90;;;;;;;16.55;81.78;98330.31;435549;1251;140827;-59
2023/09/22 06:22:50;;;;;;;5.50;3.60;;;;;;;16.92;82.14;98334.86;435745;1256;139885;-61
2023/09/22 06:32:56;;;;;;;5.50;3.10;;;;;;;17.69;81.68;98335.44;436047;1254;138977;-59
2023/09/22 06:43:04;;;;;;;5.00;3.90;;;;;;;18.47;79.26;98332.06;436110;1251;139705;-63
2023/09/22 06:53:29;;;;;;;5.40;2.90;;;;;;;19.17;78.69;98334.98;436373;1255;139927;-71
2023/09/22 07:03:35;;;;;;;8.70;3.40;;;;;;;21.35;76.41;98349.00;435669;1256;139543;-69
2023/09/22 07:13:42;;;;;;;4.70;3.00;;;;;;;23.77;72.16;98359.29;435662;1256;139087;-70
2023/09/22 07:23:47;;;;;;;4.30;3.10;;;;;;;27.19;66.51;98358.06;435653;1255;140161;-68
2023/09/22 07:33:53;;;;;;;7.00;2.70;;;;;;;28.50;58.01;98362.91;436574;1253;140174;-68
2023/09/22 07:43:59;;;;;;;5.30;3.50;;;;;;;29.30;56.48;98369.96;436086;1257;138522;-68
2023/09/22 07:54:07;;;;;;;3.80;3.00;;;;;;;33.61;50.69;98366.24;435887;1255;139919;-63
2023/09/22 08:04:13;;;;;;;5.40;3.20;;;;;;;34.67;45.80;98357.63;435602;1256;140131;-65
2023/09/22 08:14:21;;;;;;;12.60;3.10;;;;;;;37.56;42.24;98344.13;435510;1254;138398;-66
2023/09/22 08:24:27;;;;;;;3.60;3.30;;;;;;;39.07;37.62;98345.36;435553;1257;140313;-67
2023/09/22 08:34:38;;;;;;;7.30;4.30;;;;;;;37.75;35.73;98350.27;435004;1254;139008;-67
2023/09/22 08:44:44;;;;;;;6.20;2.90;;;;;;;36.47;35.72;98355.88;436114;1256;138398;-67
2023/09/22 08:54:51;;;;;;;5.90;2.90;;;;;;;34.45;35.93;98350.11;435476;1256;138952;-72
2023/09/22 09:04:57;;;;;;;3.60;2.80;;;;;;;31.63;37.49;98347.97;435390;1257;139084;-71
2023/09/22 09:15:03;;;;;;;7.80;3.20;;;;;;;29.98;40.02;98353.98;436164;1255;139528;-65
2023/09/22 09:25:11;;;;;;;4.20;3.50;;;;;;;29.37;41.37;98341.48;435513;1256;139484;-73
2023/09/22 09:35:29;;;;;;;5.90;3.20;;;;;;;29.10;42.44;98322.84;435421;1256;140370;-66
2023/09/22 09:45:50;;;;;;;4.00;3.10;;;;;;;29.04;42.73;98310.23;436086;1252;138927;-65
2023/09/22 09:55:59;;;;;;;5.70;3.10;;;;;;;28.62;42.87;98303.44;437147;1256;138492;-65
2023/09/22 10:06:09;;;;;;;3.20;2.20;;;;;;;28.11;43.15;98292.67;436097;1254;139076;-64
2023/09/22 10:16:29;;;;;;;7.60;2.70;;;;;;;27.88;43.54;98284.96;435875;1256;138733;-65
2023/09/22 10:26:36;;;;;;;3.90;2.80;;;;;;;27.95;43.53;98285.25;436503;1253;138983;-69
2023/09/22 10:36:52;;;;;;;2.00;1.80;;;;;;;27.92;43.22;98292.47;435347;1254;139178;-67
2023/09/22 10:46:58;;;;;;;2.70;2.40;;;;;;;27.64;43.30;98320.78;435609;1256;138822;-73
2023/09/22 10:57:05;;;;;;;5.00;2.20;;;;;;;27.22;43.75;98335.20;435697;1254;138341;-62
2023/09/22 11:07:12;;;;;;;4.40;2.80;;;;;;;27.24;44.47;98336.55;434970;1254;138486;-63
2023/09/22 11:17:18;;;;;;;5.00;2.40;;;;;;;27.18;44.36;98341.80;435311;1256;140548;-63
2023/09/22 11:27:24;;;;;;;3.60;2.10;;;;;;;26.89;44.83;98340.71;435539;1256;140071;-63
2023/09/22 11:37:33;;;;;;;5.00;1.70;;;;;;;26.70;45.28;98346.36;435872;1256;138734;-63
2023/09/22 11:47:39;;;;;;;7.40;2.60;;;;;;;26.71;45.39;98336.22;436045;1256;138898;-63
2023/09/22 11:57:46;;;;;;;3.80;1.90;;;;;;;26.77;45.30;98315.34;435514;1253;138789;-63
2023/09/22 12:07:52;;;;;;;4.30;1.80;;;;;;;27.05;45.30;98336.41;435624;1252;139010;-64
2023/09/22 12:17:58;;;;;;;6.80;2.30;;;;;;;27.50;45.21;98338.75;435170;1254;140673;-63
2023/09/22 12:28:04;;;;;;;4.50;1.40;;;;;;;27.48;44.55;98335.84;435300;1253;140691;-62
2023/09/22 12:38:10;;;;;;;4.50;2.60;;;;;;;26.90;44.58;98338.88;435542;1254;139865;-63
2023/09/22 12:48:15;;;;;;;4.80;2.30;;;;;;;26.07;45.43;98349.25;435088;1256;138551;-65
2023/09/22 12:58:21;;;;;;;8.00;2.40;;;;;;;25.37;46.81;98365.06;435409;1256;138819;-68
2023/09/22 13:08:27;;;;;;;5.70;2.00;;;;;;;25.36;47.71;98374.08;435562;1253;138640;-66
2023/09/22 13:18:33;;;;;;;5.60;1.90;;;;;;;25.31;48.12;98378.73;435245;1252;139715;-68
2023/09/22 13:28:39;;;;;;;3.80;2.00;;;;;;;25.33;48.57;98370.98;435269;1256;138625;-68
2023/09/22 13:38:46;;;;;;;4.00;2.20;;;;;;;25.29;48.62;98376.18;436829;1256;138624;-62
2023/09/22 13:48:51;;;;;;;3.70;1.60;;;;;;;25.40;48.68;98371.13;435729;1256;138863;-62
2023/09/22 13:58:57;;;;;;;4.20;1.70;;;;;;;25.27;48.67;98371.40;435679;1254;139341;-62
2023/09/22 14:09:04;;;;;;;7.60;1.90;;;;;;;24.69;49.24;98385.52;436108;1256;138979;-62
2023/09/22 14:19:10;;;;;;;3.50;1.90;;;;;;;24.26;50.33;98406.48;435987;1253;138805;-62
2023/09/22 14:29:17;;;;;;;6.30;2.60;;;;;;;24.26;51.21;98423.33;435816;1253;139112;-62
2023/09/22 14:39:23;;;;;;;7.60;3.10;;;;;;;24.41;51.66;98430.23;435959;1254;138390;-60
2023/09/22 14:49:29;;;;;;;4.70;3.30;;;;;;;24.28;52.23;98439.48;436110;1254;139905;-63
2023/09/22 14:59:36;;;;;;;8.00;2.90;;;;;;;24.01;52.76;98426.88;435621;1253;139024;-62
2023/09/22 15:09:42;;;;;;;7.00;2.50;;;;;;;24.06;53.25;98418.13;435763;1254;139564;-62
2023/09/22 15:19:51;;;;;;;7.50;2.80;;;;;;;24.04;53.53;98426.21;435416;1252;139679;-62
2023/09/22 15:29:57;;;;;;;5.60;2.60;;;;;;;23.71;54.12;98432.70;435932;1256;139578;-61
2023/09/22 15:40:08;;;;;;;4.50;2.10;;;;;;;23.30;54.92;98442.29;435439;1253;140462;-61
2023/09/22 15:50:14;;;;;;;3.90;1.80;;;;;;;22.97;55.96;98455.96;435523;1253;138421;-62
2023/09/22 16:00:20;;;;;;;8.00;2.70;;;;;;;22.74;57.15;98458.27;435520;1253;138365;-63
2023/09/22 16:10:26;;;;;;;5.00;2.20;;;;;;;22.48;58.21;98464.04;435340;1256;138775;-62
2023/09/22 16:20:32;;;;;;;6.80;2.40;;;;;;;22.15;59.29;98462.40;435604;1256;139517;-64
2023/09/22 16:30:38;;;;;;;8.00;2.70;;;;;;;21.78;60.32;98463.95;435395;1256;138588;-63
2023/09/22 16:40:44;;;;;;;9.10;3.20;;;;;;;21.35;61.95;98473.40;435190;1256;140178;-63
2023/09/22 16:50:53;;;;;;;11.10;4.40;;;;;;;20.97;63.53;98468.79;435516;1256;139147;-63
2023/09/22 17:01:00;;;;;;;14.80;4.90;;;;;;;20.64;64.90;98478.94;435286;1256;139260;-63
2023/09/22 17:11:08;;;;;;;14.00;5.80;;;;;;;20.42;66.25;98483.16;435108;1252;140301;-64
2023/09/22 17:21:14;;;;;;;14.50;6.60;;;;;;;20.23;67.08;98485.14;435432;1256;139518;-63
2023/09/22 17:31:36;;;;;;;16.30;8.00;;;;;;;20.03;68.04;98486.68;435748;1256;139856;-63
2023/09/22 17:41:43;;;;;;;14.10;9.30;;;;;;;19.89;69.00;98490.34;435193;1253;139521;-63
2023/09/22 17:51:50;;;;;;;11.80;9.60;;;;;;;19.77;69.99;98487.31;436009;1254;141408;-63
2023/09/22 18:01:55;;;;;;;11.30;8.30;;;;;;;19.68;70.14;98499.15;435398;1253;140652;-63
2023/09/22 18:12:01;;;;;;;16.50;8.40;;;;;;;19.59;70.72;98510.15;435532;1253;140623;-62
2023/09/22 18:22:08;;;;;;;12.40;9.00;;;;;;;19.42;71.44;98523.70;435318;1256;139835;-62
2023/09/22 18:32:15;;;;;;;12.30;7.90;;;;;;;19.26;72.42;98519.54;435377;1256;141137;-63
2023/09/22 18:42:21;;;;;;;9.60;7.30;;;;;;;19.15;73.02;98516.73;435838;1253;139388;-64
2023/09/22 18:52:27;;;;;;;11.40;7.20;;;;;;;19.05;73.69;98513.11;436106;1254;140969;-63
2023/09/22 19:02:33;;;;;;;21.60;8.10;;;;;;;18.93;74.59;98524.45;435833;1256;140952;-63
2023/09/22 19:12:41;;;;;;;12.00;7.10;;;;;;;18.82;75.04;98535.23;435747;1254;140296;-64
2023/09/22 19:22:47;;;;;;;13.60;9.90;;;;;;;18.77;75.36;98538.35;435863;1256;140290;-64
2023/09/22 19:32:53;;;;;;;10.00;7.70;;;;;;;18.76;75.78;98548.91;436142;1253;139234;-63
2023/09/22 19:42:59;;;;;;;9.80;6.10;;;;;;;18.67;76.20;98540.53;435433;1253;141501;-63
2023/09/22 19:53:06;;;;;;;10.40;6.80;;;;;;;18.60;77.02;98534.17;435362;1256;139387;-63
2023/09/22 20:03:12;;;;;;;10.10;7.10;;;;;;;18.59;77.78;98538.36;435823;1256;139677;-64
2023/09/22 20:13:18;;;;;;;10.60;7.30;;;;;;;18.51;78.07;98546.14;435725;1253;139441;-63
2023/09/22 20:23:24;;;;;;;15.70;10.10;;;;;;;18.44;78.77;98538.88;434925;1256;141299;-63
2023/09/22 20:33:31;;;;;;;13.00;8.20;;;;;;;18.41;79.23;98549.54;435365;1253;141735;-62
2023/09/22 20:43:38;;;;;;;15.70;8.70;;;;;;;18.36;79.90;98547.01;435753;1256;139596;-62
2023/09/22 20:53:46;;;;;;;13.20;8.50;;;;;;;18.31;80.54;98552.70;435493;1256;140515;-63
2023/09/22 21:03:55;;;;;;;11.80;8.60;;;;;;;18.30;80.88;98560.63;436558;1253;139413;-64
2023/09/22 21:14:02;;;;;;;18.80;9.30;;;;;;;18.30;81.34;98564.46;435773;1253;139461;-63
2023/09/22 21:24:09;;;;;;;17.70;10.80;;;;;;;18.30;81.96;98549.91;435121;1255;139714;-64
2023/09/22 21:34:15;;;;;;;11.90;9.20;;;;;;;18.30;82.72;98550.65;435238;1256;141232;-63
2023/09/22 21:44:25;;;;;;;13.80;9.90;;;;;;;18.30;83.93;98555.07;435085;1256;139604;-62
2023/09/22 21:54:31;;;;;;;17.00;9.70;;;;;;;18.20;84.83;98551.50;436016;1253;140408;-64
2023/09/22 22:04:37;;;;;;;17.60;11.10;;;;;;;18.06;86.08;98536.85;435258;1254;139464;-63
2023/09/22 22:14:45;;;;;;;13.10;10.40;;;;;;;17.99;87.26;98548.27;435827;1256;139754;-63
2023/09/22 22:24:51;;;;;;;13.70;11.20;;;;;;;17.93;88.47;98546.39;435451;1256;139415;-63
2023/09/22 22:34:58;;;;;;;11.50;10.00;;;;;;;17.88;89.88;98534.80;435837;1254;140864;-63
2023/09/22 22:45:07;;;;;;;11.80;10.20;;;;;;;17.85;91.30;98527.48;435535;1256;140183;-64
2023/09/22 22:55:13;;;;;;;15.90;10.80;;;;;;;17.77;92.42;98527.70;436018;1257;141290;-63
2023/09/22 23:05:20;;;;;;;20.70;10.80;;;;;;;17.69;93.23;98539.38;435216;1256;140016;-64
2023/09/22 23:15:28;;;;;;;12.60;9.20;;;;;;;17.63;93.18;98538.21;435425;1254;140643;-63
2023/09/22 23:25:34;;;;;;;10.80;8.70;;;;;;;17.58;93.67;98541.45;435634;1256;140351;-63
2023/09/22 23:35:41;;;;;;;10.40;8.10;;;;;;;17.53;94.39;98540.77;435543;1256;140171;-64
2023/09/22 23:45:46;;;;;;;11.00;8.60;;;;;;;17.46;94.67;98523.14;435243;1256;141212;-62
2023/09/22 23:55:53;;;;;;;8.00;6.70;;;;;;;17.40;94.69;98521.82;435573;1256;139470;-64
